sensor_id;sensor_type;location;lat;lon;timestamp;pressure;altitude;pressure_sealevel;temperature;humidity
33845;BME280;20145;43.118;25.694;2023-04-23T00:02:03;99541.72;;;7.35;96.42
33845;BME280;20145;43.118;25.694;2023-04-23T00:04:30;99543.44;;;7.36;97.16
33845;BME280;20145;43.118;25.694;2023-04-23T00:07:02;99541.72;;;7.30;96.50
33845;BME280;20145;43.118;25.694;2023-04-23T00:09:29;99537.44;;;7.34;97.72
33845;BME280;20145;43.118;25.694;2023-04-23T00:11:55;99547.72;;;7.35;97.42
33845;BME280;20145;43.118;25.694;2023-04-23T00:14:22;99544.28;;;7.30;97.08
33845;BME280;20145;43.118;25.694;2023-04-23T00:16:48;99539.97;;;7.28;96.47
33845;BME280;20145;43.118;25.694;2023-04-23T00:19:13;99542.56;;;7.28;96.69
33845;BME280;20145;43.118;25.694;2023-04-23T00:21:39;99538.28;;;7.21;97.01
33845;BME280;20145;43.118;25.694;2023-04-23T00:24:05;99541.69;;;7.24;97.63
33845;BME280;20145;43.118;25.694;2023-04-23T00:26:31;99543.38;;;7.22;97.23
33845;BME280;20145;43.118;25.694;2023-04-23T00:28:56;99549.38;;;7.23;96.92
33845;BME280;20145;43.118;25.694;2023-04-23T00:31:22;99544.25;;;7.21;96.85
33845;BME280;20145;43.118;25.694;2023-04-23T00:33:48;99546.78;;;7.20;97.18
33845;BME280;20145;43.118;25.694;2023-04-23T00:36:14;99536.50;;;7.12;97.01
33845;BME280;20145;43.118;25.694;2023-04-23T00:38:40;99532.22;;;7.09;98.16
33845;BME280;20145;43.118;25.694;2023-04-23T00:41:06;99539.06;;;7.10;96.73
33845;BME280;20145;43.118;25.694;2023-04-23T00:43:32;99535.63;;;7.05;96.66
33845;BME280;20145;43.118;25.694;2023-04-23T00:45:58;99530.47;;;6.98;97.48
33845;BME280;20145;43.118;25.694;2023-04-23T00:48:24;99542.41;;;6.94;96.71
33845;BME280;20145;43.118;25.694;2023-04-23T00:50:57;99539.00;;;6.90;97.47
33845;BME280;20145;43.118;25.694;2023-04-23T00:53:25;99543.22;;;6.87;97.10
33845;BME280;20145;43.118;25.694;2023-04-23T00:55:51;99545.81;;;6.85;97.60
33845;BME280;20145;43.118;25.694;2023-04-23T00:58:17;99544.94;;;6.86;98.28
33845;BME280;20145;43.118;25.694;2023-04-23T01:00:45;99547.53;;;6.91;98.11
33845;BME280;20145;43.118;25.694;2023-04-23T01:03:13;99533.88;;;6.97;97.07
33845;BME280;20145;43.118;25.694;2023-04-23T01:05:40;99541.56;;;6.95;96.47
33845;BME280;20145;43.118;25.694;2023-04-23T01:08:06;99541.56;;;6.90;96.34
33845;BME280;20145;43.118;25.694;2023-04-23T01:10:33;99531.25;;;6.84;97.15
33845;BME280;20145;43.118;25.694;2023-04-23T01:12:58;99531.31;;;6.97;99.12
33845;BME280;20145;43.118;25.694;2023-04-23T01:15:25;99530.47;;;6.96;97.06
33845;BME280;20145;43.118;25.694;2023-04-23T01:17:51;99525.31;;;6.95;97.03
33845;BME280;20145;43.118;25.694;2023-04-23T01:20:17;99524.44;;;6.89;95.79
33845;BME280;20145;43.118;25.694;2023-04-23T01:22:43;99526.09;;;6.78;95.08
33845;BME280;20145;43.118;25.694;2023-04-23T01:25:09;99520.91;;;6.70;95.88
33845;BME280;20145;43.118;25.694;2023-04-23T01:27:34;99524.31;;;6.65;96.68
33845;BME280;20145;43.118;25.694;2023-04-23T01:30:03;99526.88;;;6.60;97.04
33845;BME280;20145;43.118;25.694;2023-04-23T01:32:31;99530.25;;;6.59;97.64
33845;BME280;20145;43.118;25.694;2023-04-23T01:34:57;99525.97;;;6.57;98.30
33845;BME280;20145;43.118;25.694;2023-04-23T01:37:23;99526.84;;;6.54;99.12
33845;BME280;20145;43.118;25.694;2023-04-23T01:39:49;99525.13;;;6.55;99.01
33845;BME280;20145;43.118;25.694;2023-04-23T01:42:15;99520.84;;;6.52;98.70
33845;BME280;20145;43.118;25.694;2023-04-23T01:44:41;99523.38;;;6.54;98.83
33845;BME280;20145;43.118;25.694;2023-04-23T01:47:06;99519.97;;;6.48;98.86
33845;BME280;20145;43.118;25.694;2023-04-23T01:49:32;99524.28;;;6.57;99.44
33845;BME280;20145;43.118;25.694;2023-04-23T01:51:58;99524.28;;;6.59;99.44
33845;BME280;20145;43.118;25.694;2023-04-23T01:54:23;99532.81;;;6.58;98.42
33845;BME280;20145;43.118;25.694;2023-04-23T01:56:49;99536.25;;;6.60;98.64
33845;BME280;20145;43.118;25.694;2023-04-23T01:59:20;99534.50;;;6.56;98.47
33845;BME280;20145;43.118;25.694;2023-04-23T02:01:46;99524.22;;;6.50;99.32
33845;BME280;20145;43.118;25.694;2023-04-23T02:04:13;99534.50;;;6.53;99.32
33845;BME280;20145;43.118;25.694;2023-04-23T02:06:41;99536.19;;;6.54;99.98
33845;BME280;20145;43.118;25.694;2023-04-23T02:09:07;99529.34;;;6.46;99.15
33845;BME280;20145;43.118;25.694;2023-04-23T02:11:33;99541.28;;;6.47;98.96
33845;BME280;20145;43.118;25.694;2023-04-23T02:13:59;99535.31;;;6.47;98.62
33845;BME280;20145;43.118;25.694;2023-04-23T02:16:25;99545.56;;;6.44;98.93
33845;BME280;20145;43.118;25.694;2023-04-23T02:18:53;99525.00;;;6.38;98.99
33845;BME280;20145;43.118;25.694;2023-04-23T02:21:19;99546.38;;;6.38;98.74
33845;BME280;20145;43.118;25.694;2023-04-23T02:23:45;99552.31;;;6.36;97.34
33845;BME280;20145;43.118;25.694;2023-04-23T02:26:10;99545.47;;;6.30;96.99
33845;BME280;20145;43.118;25.694;2023-04-23T02:28:36;99546.25;;;6.24;97.04
33845;BME280;20145;43.118;25.694;2023-04-23T02:31:02;99546.22;;;6.18;97.00
33845;BME280;20145;43.118;25.694;2023-04-23T02:33:46;99533.38;;;6.14;97.70
33845;BME280;20145;43.118;25.694;2023-04-23T02:36:12;99539.31;;;6.11;98.15
33845;BME280;20145;43.118;25.694;2023-04-23T02:38:37;99533.34;;;6.12;98.63
33845;BME280;20145;43.118;25.694;2023-04-23T02:41:06;99530.81;;;6.14;98.57
33845;BME280;20145;43.118;25.694;2023-04-23T02:43:32;99530.78;;;6.08;98.36
33845;BME280;20145;43.118;25.694;2023-04-23T02:45:58;99533.34;;;6.12;98.25
33845;BME280;20145;43.118;25.694;2023-04-23T02:48:24;99529.97;;;6.13;98.21
33845;BME280;20145;43.118;25.694;2023-04-23T02:50:51;99529.97;;;6.16;98.67
33845;BME280;20145;43.118;25.694;2023-04-23T02:53:17;99531.66;;;6.11;97.78
33845;BME280;20145;43.118;25.694;2023-04-23T02:55:42;99541.03;;;6.12;97.82
33845;BME280;20145;43.118;25.694;2023-04-23T02:58:08;99542.72;;;6.09;98.18
33845;BME280;20145;43.118;25.694;2023-04-23T03:00:35;99546.94;;;6.03;97.98
33845;BME280;20145;43.118;25.694;2023-04-23T03:03:01;99522.03;;;5.86;98.00
33845;BME280;20145;43.118;25.694;2023-04-23T03:05:26;99547.75;;;5.96;98.31
33845;BME280;20145;43.118;25.694;2023-04-23T03:07:52;99552.84;;;5.93;99.04
33845;BME280;20145;43.118;25.694;2023-04-23T03:10:18;99537.44;;;5.92;99.30
33845;BME280;20145;43.118;25.694;2023-04-23T03:12:43;99539.09;;;5.90;98.21
33845;BME280;20145;43.118;25.694;2023-04-23T03:15:09;99547.63;;;5.90;97.67
33845;BME280;20145;43.118;25.694;2023-04-23T03:17:35;99549.34;;;5.88;98.42
33845;BME280;20145;43.118;25.694;2023-04-23T03:20:03;99551.91;;;5.90;98.58
33845;BME280;20145;43.118;25.694;2023-04-23T03:22:28;99565.56;;;5.90;99.26
33845;BME280;20145;43.118;25.694;2023-04-23T03:24:54;99556.97;;;5.84;99.60
33845;BME280;20145;43.118;25.694;2023-04-23T03:27:19;99555.25;;;5.79;98.39
33845;BME280;20145;43.118;25.694;2023-04-23T03:29:45;99556.94;;;5.77;97.97
33845;BME280;20145;43.118;25.694;2023-04-23T03:32:10;99560.31;;;5.75;98.13
33845;BME280;20145;43.118;25.694;2023-04-23T03:34:36;99570.59;;;5.76;97.92
33845;BME280;20145;43.118;25.694;2023-04-23T03:37:01;99562.00;;;5.73;98.29
33845;BME280;20145;43.118;25.694;2023-04-23T03:39:27;99571.50;;;5.83;99.04
33845;BME280;20145;43.118;25.694;2023-04-23T03:41:53;99577.50;;;5.85;99.44
33845;BME280;20145;43.118;25.694;2023-04-23T03:44:18;99580.94;;;5.90;98.85
33845;BME280;20145;43.118;25.694;2023-04-23T03:46:44;99588.59;;;5.89;98.45
33845;BME280;20145;43.118;25.694;2023-04-23T03:49:09;99580.91;;;5.87;99.07
33845;BME280;20145;43.118;25.694;2023-04-23T03:51:35;99580.09;;;5.91;98.97
33845;BME280;20145;43.118;25.694;2023-04-23T03:54:01;99571.56;;;5.91;98.66
33845;BME280;20145;43.118;25.694;2023-04-23T03:56:26;99575.19;;;6.11;98.29
33845;BME280;20145;43.118;25.694;2023-04-23T03:58:52;99577.00;;;6.21;97.87
33845;BME280;20145;43.118;25.694;2023-04-23T04:01:18;99587.31;;;6.34;97.54
33845;BME280;20145;43.118;25.694;2023-04-23T04:03:43;99584.00;;;6.47;97.48
33845;BME280;20145;43.118;25.694;2023-04-23T04:06:09;99579.88;;;6.66;97.77
33845;BME280;20145;43.118;25.694;2023-04-23T04:08:35;99576.53;;;6.81;96.37
33845;BME280;20145;43.118;25.694;2023-04-23T04:11:01;99580.09;;;7.01;96.10
33845;BME280;20145;43.118;25.694;2023-04-23T04:13:27;99586.16;;;7.19;95.87
33845;BME280;20145;43.118;25.694;2023-04-23T04:15:53;99578.41;;;7.14;95.71
33845;BME280;20145;43.118;25.694;2023-04-23T04:18:19;99603.25;;;7.21;96.53
33845;BME280;20145;43.118;25.694;2023-04-23T04:20:45;99590.44;;;7.18;96.64
33845;BME280;20145;43.118;25.694;2023-04-23T04:23:11;99592.19;;;7.33;97.02
33845;BME280;20145;43.118;25.694;2023-04-23T04:25:37;99596.56;;;7.57;97.54
33845;BME280;20145;43.118;25.694;2023-04-23T04:28:05;99606.91;;;7.91;96.47
33845;BME280;20145;43.118;25.694;2023-04-23T04:30:32;99584.69;;;8.16;95.30
33845;BME280;20145;43.118;25.694;2023-04-23T04:32:58;99589.00;;;8.43;94.52
33845;BME280;20145;43.118;25.694;2023-04-23T04:35:25;99602.69;;;8.68;94.86
33845;BME280;20145;43.118;25.694;2023-04-23T04:37:51;99606.94;;;8.98;93.29
33845;BME280;20145;43.118;25.694;2023-04-23T04:40:19;99605.13;;;9.23;92.90
33845;BME280;20145;43.118;25.694;2023-04-23T04:42:44;99611.91;;;9.49;91.99
33845;BME280;20145;43.118;25.694;2023-04-23T04:45:10;99609.16;;;9.81;90.95
33845;BME280;20145;43.118;25.694;2023-04-23T04:47:36;99607.34;;;9.98;88.77
33845;BME280;20145;43.118;25.694;2023-04-23T04:50:03;99611.47;;;10.21;89.30
33845;BME280;20145;43.118;25.694;2023-04-23T04:52:28;99608.00;;;10.30;89.10
33845;BME280;20145;43.118;25.694;2023-04-23T04:54:54;99609.59;;;10.46;89.40
33845;BME280;20145;43.118;25.694;2023-04-23T04:57:20;99608.53;;;10.70;88.95
33845;BME280;20145;43.118;25.694;2023-04-23T04:59:48;99592.91;;;10.84;87.81
33845;BME280;20145;43.118;25.694;2023-04-23T05:02:13;99611.47;;;11.20;86.83
33845;BME280;20145;43.118;25.694;2023-04-23T05:04:39;99621.59;;;11.35;85.71
33845;BME280;20145;43.118;25.694;2023-04-23T05:07:05;99622.28;;;11.49;84.96
33845;BME280;20145;43.118;25.694;2023-04-23T05:09:30;99614.34;;;11.63;85.93
33845;BME280;20145;43.118;25.694;2023-04-23T05:11:56;99626.09;;;11.90;83.35
33845;BME280;20145;43.118;25.694;2023-04-23T05:14:22;99630.13;;;12.08;83.73
33845;BME280;20145;43.118;25.694;2023-04-23T05:16:47;99630.06;;;12.14;83.30
33845;BME280;20145;43.118;25.694;2023-04-23T05:19:13;99623.91;;;12.21;82.99
33845;BME280;20145;43.118;25.694;2023-04-23T05:21:38;99622.16;;;12.22;82.33
33845;BME280;20145;43.118;25.694;2023-04-23T05:24:06;99635.72;;;12.39;81.34
33845;BME280;20145;43.118;25.694;2023-04-23T05:26:33;99629.53;;;12.46;82.17
33845;BME280;20145;43.118;25.694;2023-04-23T05:28:59;99626.00;;;12.54;81.41
33845;BME280;20145;43.118;25.694;2023-04-23T05:31:25;99626.16;;;12.43;81.62
33845;BME280;20145;43.118;25.694;2023-04-23T05:33:51;99628.59;;;12.52;82.38
33845;BME280;20145;43.118;25.694;2023-04-23T05:36:17;99625.09;;;12.56;81.42
33845;BME280;20145;43.118;25.694;2023-04-23T05:38:43;99629.22;;;12.66;80.64
33845;BME280;20145;43.118;25.694;2023-04-23T05:41:08;99632.53;;;12.75;81.62
33845;BME280;20145;43.118;25.694;2023-04-23T05:43:34;99637.81;;;12.70;80.79
33845;BME280;20145;43.118;25.694;2023-04-23T05:45:59;99634.44;;;12.65;80.25
33845;BME280;20145;43.118;25.694;2023-04-23T05:48:25;99637.50;;;12.87;80.45
33845;BME280;20145;43.118;25.694;2023-04-23T05:50:50;99624.56;;;12.87;79.72
33845;BME280;20145;43.118;25.694;2023-04-23T05:53:16;99638.34;;;12.89;79.89
33845;BME280;20145;43.118;25.694;2023-04-23T05:55:42;99641.00;;;12.83;80.19
33845;BME280;20145;43.118;25.694;2023-04-23T05:58:07;99642.88;;;12.75;82.01
33845;BME280;20145;43.118;25.694;2023-04-23T06:00:33;99629.78;;;12.84;81.73
33845;BME280;20145;43.118;25.694;2023-04-23T06:02:59;99645.81;;;13.04;79.64
33845;BME280;20145;43.118;25.694;2023-04-23T06:05:25;99640.56;;;13.07;79.73
33845;BME280;20145;43.118;25.694;2023-04-23T06:07:50;99640.38;;;13.20;80.00
33845;BME280;20145;43.118;25.694;2023-04-23T06:10:16;99637.78;;;13.20;80.75
33845;BME280;20145;43.118;25.694;2023-04-23T06:12:42;99639.41;;;13.24;79.60
33845;BME280;20145;43.118;25.694;2023-04-23T06:15:08;99641.97;;;13.27;79.57
33845;BME280;20145;43.118;25.694;2023-04-23T06:17:34;99641.03;;;13.31;79.92
33845;BME280;20145;43.118;25.694;2023-04-23T06:20:01;99646.81;;;13.44;80.47
33845;BME280;20145;43.118;25.694;2023-04-23T06:22:26;99643.22;;;13.51;80.39
33845;BME280;20145;43.118;25.694;2023-04-23T06:24:52;99641.56;;;13.48;80.85
33845;BME280;20145;43.118;25.694;2023-04-23T06:27:17;99640.38;;;13.63;80.20
33845;BME280;20145;43.118;25.694;2023-04-23T06:29:43;99629.78;;;13.74;79.43
33845;BME280;20145;43.118;25.694;2023-04-23T06:32:08;99641.59;;;13.87;79.56
33845;BME280;20145;43.118;25.694;2023-04-23T06:34:35;99642.00;;;14.07;79.84
33845;BME280;20145;43.118;25.694;2023-04-23T06:37:00;99630.69;;;14.12;80.14
33845;BME280;20145;43.118;25.694;2023-04-23T06:39:26;99636.56;;;14.18;78.09
33845;BME280;20145;43.118;25.694;2023-04-23T06:41:51;99629.44;;;14.28;77.74
33845;BME280;20145;43.118;25.694;2023-04-23T06:44:17;99632.31;;;14.16;74.41
33845;BME280;20145;43.118;25.694;2023-04-23T06:46:42;99623.66;;;14.17;74.24
33845;BME280;20145;43.118;25.694;2023-04-23T06:49:08;99635.69;;;14.19;76.17
33845;BME280;20145;43.118;25.694;2023-04-23T06:51:34;99627.84;;;14.22;74.83
33845;BME280;20145;43.118;25.694;2023-04-23T06:53:59;99634.88;;;14.17;74.18
33845;BME280;20145;43.118;25.694;2023-04-23T06:56:25;99629.63;;;14.19;72.08
33845;BME280;20145;43.118;25.694;2023-04-23T06:58:51;99624.84;;;14.39;72.77
33845;BME280;20145;43.118;25.694;2023-04-23T07:01:18;99626.28;;;14.53;72.21
33845;BME280;20145;43.118;25.694;2023-04-23T07:03:43;99631.06;;;14.69;70.96
33845;BME280;20145;43.118;25.694;2023-04-23T07:06:14;99636.94;;;14.76;71.10
33845;BME280;20145;43.118;25.694;2023-04-23T07:08:41;99637.50;;;14.89;69.25
33845;BME280;20145;43.118;25.694;2023-04-23T07:11:06;99628.75;;;14.91;69.42
33845;BME280;20145;43.118;25.694;2023-04-23T07:13:32;99628.75;;;14.91;68.74
33845;BME280;20145;43.118;25.694;2023-04-23T07:15:57;99634.72;;;14.95;67.08
33845;BME280;20145;43.118;25.694;2023-04-23T07:18:23;99630.94;;;15.07;67.15
33845;BME280;20145;43.118;25.694;2023-04-23T07:20:49;99632.53;;;15.12;66.77
33845;BME280;20145;43.118;25.694;2023-04-23T07:23:15;99644.34;;;15.24;68.80
33845;BME280;20145;43.118;25.694;2023-04-23T07:25:40;99638.13;;;15.30;67.79
33845;BME280;20145;43.118;25.694;2023-04-23T07:28:06;99628.41;;;15.36;68.56
33845;BME280;20145;43.118;25.694;2023-04-23T07:30:32;99632.22;;;15.54;68.18
33845;BME280;20145;43.118;25.694;2023-04-23T07:32:57;99632.75;;;15.66;68.29
33845;BME280;20145;43.118;25.694;2023-04-23T07:35:23;99632.63;;;15.72;66.51
33845;BME280;20145;43.118;25.694;2023-04-23T07:37:49;99618.59;;;15.77;65.98
33845;BME280;20145;43.118;25.694;2023-04-23T07:40:20;99631.19;;;15.91;64.34
33845;BME280;20145;43.118;25.694;2023-04-23T07:42:46;99636.09;;;16.00;66.14
33845;BME280;20145;43.118;25.694;2023-04-23T07:45:13;99629.72;;;16.11;65.65
33845;BME280;20145;43.118;25.694;2023-04-23T07:47:39;99626.94;;;16.15;67.34
33845;BME280;20145;43.118;25.694;2023-04-23T07:50:06;99626.28;;;16.10;66.18
33845;BME280;20145;43.118;25.694;2023-04-23T07:52:31;99628.25;;;16.02;65.95
33845;BME280;20145;43.118;25.694;2023-04-23T07:54:57;99626.44;;;16.04;67.15
33845;BME280;20145;43.118;25.694;2023-04-23T07:57:22;99627.91;;;16.13;66.88
33845;BME280;20145;43.118;25.694;2023-04-23T07:59:48;99613.00;;;16.18;65.02
33845;BME280;20145;43.118;25.694;2023-04-23T08:02:14;99609.91;;;16.33;64.86
33845;BME280;20145;43.118;25.694;2023-04-23T08:04:39;99617.63;;;16.36;64.86
33845;BME280;20145;43.118;25.694;2023-04-23T08:07:05;99619.53;;;16.58;64.52
33845;BME280;20145;43.118;25.694;2023-04-23T08:09:30;99616.63;;;16.65;63.85
33845;BME280;20145;43.118;25.694;2023-04-23T08:11:56;99621.00;;;16.65;65.80
33845;BME280;20145;43.118;25.694;2023-04-23T08:14:22;99615.78;;;16.65;64.64
33845;BME280;20145;43.118;25.694;2023-04-23T08:16:47;99617.22;;;16.73;63.18
33845;BME280;20145;43.118;25.694;2023-04-23T08:19:13;99617.34;;;16.70;62.90
33845;BME280;20145;43.118;25.694;2023-04-23T08:21:38;99617.19;;;16.77;63.30
33845;BME280;20145;43.118;25.694;2023-04-23T08:24:05;99602.69;;;16.93;62.50
33845;BME280;20145;43.118;25.694;2023-04-23T08:26:33;99609.41;;;17.00;61.29
33845;BME280;20145;43.118;25.694;2023-04-23T08:28:59;99603.88;;;17.09;59.92
33845;BME280;20145;43.118;25.694;2023-04-23T08:31:27;99608.66;;;17.22;56.43
33845;BME280;20145;43.118;25.694;2023-04-23T08:33:54;99599.56;;;17.32;56.19
33845;BME280;20145;43.118;25.694;2023-04-23T08:36:19;99606.00;;;17.47;60.31
33845;BME280;20145;43.118;25.694;2023-04-23T08:38:45;99605.09;;;17.48;56.83
33845;BME280;20145;43.118;25.694;2023-04-23T08:41:13;99600.53;;;17.53;55.76
33845;BME280;20145;43.118;25.694;2023-04-23T08:46:39;99602.59;;;17.45;54.83
33845;BME280;20145;43.118;25.694;2023-04-23T08:49:06;99597.44;;;17.43;53.03
33845;BME280;20145;43.118;25.694;2023-04-23T08:51:36;99587.47;;;17.54;55.03
33845;BME280;20145;43.118;25.694;2023-04-23T08:54:03;99593.84;;;17.69;57.41
33845;BME280;20145;43.118;25.694;2023-04-23T08:56:31;99585.22;;;17.67;55.13
33845;BME280;20145;43.118;25.694;2023-04-23T08:58:57;99584.31;;;17.68;51.38
33845;BME280;20145;43.118;25.694;2023-04-23T09:01:23;99582.69;;;17.66;52.44
33845;BME280;20145;43.118;25.694;2023-04-23T09:03:49;99591.06;;;17.74;43.77
33845;BME280;20145;43.118;25.694;2023-04-23T09:06:14;99586.44;;;17.82;48.47
33845;BME280;20145;43.118;25.694;2023-04-23T09:08:40;99581.31;;;17.79;49.24
33845;BME280;20145;43.118;25.694;2023-04-23T09:11:06;99579.19;;;17.65;45.88
33845;BME280;20145;43.118;25.694;2023-04-23T09:13:32;99575.63;;;17.68;43.19
33845;BME280;20145;43.118;25.694;2023-04-23T09:15:59;99575.34;;;17.75;35.83
33845;BME280;20145;43.118;25.694;2023-04-23T09:18:25;99573.97;;;17.89;39.41
33845;BME280;20145;43.118;25.694;2023-04-23T09:20:51;99569.00;;;18.04;40.81
33845;BME280;20145;43.118;25.694;2023-04-23T09:23:20;99565.97;;;17.93;41.10
33845;BME280;20145;43.118;25.694;2023-04-23T09:25:46;99565.34;;;17.87;41.42
33845;BME280;20145;43.118;25.694;2023-04-23T09:28:11;99563.97;;;18.00;40.01
33845;BME280;20145;43.118;25.694;2023-04-23T09:30:43;99551.75;;;18.00;39.77
33845;BME280;20145;43.118;25.694;2023-04-23T09:33:13;99563.00;;;18.02;39.69
33845;BME280;20145;43.118;25.694;2023-04-23T09:35:41;99562.19;;;18.00;39.46
33845;BME280;20145;43.118;25.694;2023-04-23T09:38:08;99555.34;;;17.98;40.18
33845;BME280;20145;43.118;25.694;2023-04-23T09:40:35;99554.00;;;18.10;40.48
33845;BME280;20145;43.118;25.694;2023-04-23T09:43:03;99551.81;;;18.21;40.65
33845;BME280;20145;43.118;25.694;2023-04-23T09:45:29;99546.38;;;18.25;39.84
33845;BME280;20145;43.118;25.694;2023-04-23T09:47:56;99545.09;;;18.36;40.38
33845;BME280;20145;43.118;25.694;2023-04-23T09:50:36;99550.06;;;18.42;40.22
33845;BME280;20145;43.118;25.694;2023-04-23T09:53:07;99549.78;;;18.48;40.07
33845;BME280;20145;43.118;25.694;2023-04-23T09:55:35;99541.41;;;18.40;40.43
33845;BME280;20145;43.118;25.694;2023-04-23T09:58:05;99536.66;;;18.49;40.76
33845;BME280;20145;43.118;25.694;2023-04-23T10:00:36;99532.59;;;18.42;40.69
33845;BME280;20145;43.118;25.694;2023-04-23T10:03:03;99526.78;;;18.56;42.83
33845;BME280;20145;43.118;25.694;2023-04-23T10:05:30;99540.09;;;18.70;40.03
33845;BME280;20145;43.118;25.694;2023-04-23T10:07:56;99527.72;;;18.76;42.13
33845;BME280;20145;43.118;25.694;2023-04-23T10:10:23;99526.00;;;18.76;40.78
33845;BME280;20145;43.118;25.694;2023-04-23T10:12:51;99530.66;;;18.88;41.23
33845;BME280;20145;43.118;25.694;2023-04-23T10:15:17;99522.75;;;18.69;40.14
33845;BME280;20145;43.118;25.694;2023-04-23T10:17:44;99518.31;;;18.71;40.49
33845;BME280;20145;43.118;25.694;2023-04-23T10:20:11;99522.59;;;18.74;39.09
33845;BME280;20145;43.118;25.694;2023-04-23T10:22:37;99513.53;;;18.61;38.74
33845;BME280;20145;43.118;25.694;2023-04-23T10:25:09;99515.09;;;18.65;39.26
33845;BME280;20145;43.118;25.694;2023-04-23T10:27:42;99507.56;;;18.79;39.72
33845;BME280;20145;43.118;25.694;2023-04-23T10:30:10;99499.28;;;18.88;37.95
33845;BME280;20145;43.118;25.694;2023-04-23T10:32:37;99497.22;;;18.95;37.42
33845;BME280;20145;43.118;25.694;2023-04-23T10:35:05;99497.53;;;19.08;38.41
33845;BME280;20145;43.118;25.694;2023-04-23T10:37:31;99493.59;;;19.18;38.39
33845;BME280;20145;43.118;25.694;2023-04-23T10:40:04;99495.63;;;19.30;38.80
33845;BME280;20145;43.118;25.694;2023-04-23T10:42:33;99494.69;;;19.31;37.65
33845;BME280;20145;43.118;25.694;2023-04-23T10:44:59;99484.66;;;19.22;36.12
33845;BME280;20145;43.118;25.694;2023-04-23T10:47:25;99485.38;;;19.26;37.08
33845;BME280;20145;43.118;25.694;2023-04-23T10:49:51;99483.03;;;19.38;37.26
33845;BME280;20145;43.118;25.694;2023-04-23T10:52:17;99483.63;;;19.26;38.81
33845;BME280;20145;43.118;25.694;2023-04-23T10:54:48;99480.41;;;19.38;38.51
33845;BME280;20145;43.118;25.694;2023-04-23T10:57:14;99475.81;;;19.44;37.42
33845;BME280;20145;43.118;25.694;2023-04-23T10:59:50;99471.94;;;19.33;37.32
33845;BME280;20145;43.118;25.694;2023-04-23T11:02:16;99465.91;;;19.50;39.17
33845;BME280;20145;43.118;25.694;2023-04-23T11:04:52;99469.25;;;19.54;38.40
33845;BME280;20145;43.118;25.694;2023-04-23T11:07:19;99462.88;;;19.59;39.03
33845;BME280;20145;43.118;25.694;2023-04-23T11:09:46;99463.06;;;19.74;40.04
33845;BME280;20145;43.118;25.694;2023-04-23T11:14:52;99453.13;;;19.61;38.24
33845;BME280;20145;43.118;25.694;2023-04-23T11:20:18;99457.00;;;19.73;38.60
33845;BME280;20145;43.118;25.694;2023-04-23T11:22:45;99456.22;;;19.71;38.84
33845;BME280;20145;43.118;25.694;2023-04-23T11:27:42;99453.28;;;19.58;38.34
33845;BME280;20145;43.118;25.694;2023-04-23T11:30:19;99448.16;;;19.57;37.27
33845;BME280;20145;43.118;25.694;2023-04-23T11:32:50;99450.63;;;19.60;37.89
33845;BME280;20145;43.118;25.694;2023-04-23T11:35:21;99444.16;;;19.67;37.63
33845;BME280;20145;43.118;25.694;2023-04-23T11:37:47;99442.28;;;19.88;38.09
33845;BME280;20145;43.118;25.694;2023-04-23T11:40:15;99449.28;;;20.05;38.14
33845;BME280;20145;43.118;25.694;2023-04-23T11:42:51;99446.06;;;20.00;35.93
33845;BME280;20145;43.118;25.694;2023-04-23T11:45:22;99438.03;;;20.03;37.83
33845;BME280;20145;43.118;25.694;2023-04-23T11:47:50;99438.97;;;19.85;36.90
33845;BME280;20145;43.118;25.694;2023-04-23T11:50:20;99434.03;;;19.78;37.85
33845;BME280;20145;43.118;25.694;2023-04-23T11:52:46;99442.59;;;19.82;36.81
33845;BME280;20145;43.118;25.694;2023-04-23T11:55:12;99430.41;;;19.81;36.98
33845;BME280;20145;43.118;25.694;2023-04-23T11:57:50;99431.13;;;19.85;35.64
33845;BME280;20145;43.118;25.694;2023-04-23T12:00:22;99430.81;;;19.91;35.55
33845;BME280;20145;43.118;25.694;2023-04-23T12:02:52;99419.47;;;20.08;36.64
33845;BME280;20145;43.118;25.694;2023-04-23T12:05:35;99423.41;;;20.16;35.78
33845;BME280;20145;43.118;25.694;2023-04-23T12:08:32;99422.00;;;20.09;34.57
33845;BME280;20145;43.118;25.694;2023-04-23T12:11:04;99414.91;;;20.11;34.40
33845;BME280;20145;43.118;25.694;2023-04-23T12:13:33;99422.25;;;20.04;35.80
33845;BME280;20145;43.118;25.694;2023-04-23T12:16:02;99413.25;;;19.93;35.38
33845;BME280;20145;43.118;25.694;2023-04-23T12:18:29;99402.84;;;19.91;35.84
33845;BME280;20145;43.118;25.694;2023-04-23T12:20:56;99406.09;;;19.79;36.90
33845;BME280;20145;43.118;25.694;2023-04-23T12:23:26;99394.38;;;19.69;36.53
33845;BME280;20145;43.118;25.694;2023-04-23T12:25:55;99383.97;;;19.67;35.33
33845;BME280;20145;43.118;25.694;2023-04-23T12:28:24;99394.75;;;19.78;36.10
33845;BME280;20145;43.118;25.694;2023-04-23T12:30:50;99389.91;;;19.88;35.37
33845;BME280;20145;43.118;25.694;2023-04-23T12:33:17;99389.59;;;19.94;34.76
33845;BME280;20145;43.118;25.694;2023-04-23T12:35:50;99391.16;;;19.98;35.17
33845;BME280;20145;43.118;25.694;2023-04-23T12:38:24;99385.81;;;20.00;34.05
33845;BME280;20145;43.118;25.694;2023-04-23T12:40:51;99388.44;;;20.00;35.46
33845;BME280;20145;43.118;25.694;2023-04-23T12:43:17;99380.44;;;19.86;35.28
33845;BME280;20145;43.118;25.694;2023-04-23T12:45:42;99378.50;;;19.89;35.58
33845;BME280;20145;43.118;25.694;2023-04-23T12:48:09;99378.28;;;19.94;36.84
33845;BME280;20145;43.118;25.694;2023-04-23T12:50:35;99379.66;;;20.01;38.86
33845;BME280;20145;43.118;25.694;2023-04-23T12:53:02;99379.09;;;20.12;36.72
33845;BME280;20145;43.118;25.694;2023-04-23T12:55:27;99365.88;;;20.31;37.02
33845;BME280;20145;43.118;25.694;2023-04-23T12:57:53;99375.94;;;20.56;35.28
33845;BME280;20145;43.118;25.694;2023-04-23T13:00:18;99375.03;;;20.72;36.63
33845;BME280;20145;43.118;25.694;2023-04-23T13:02:44;99366.50;;;20.85;35.47